Flight Track Log - Related Links

Times and Time Zones

All times are in EDT time to prevent confusion due to time zone crossing. See the N953AN flight status page for this flight to view local times or setup timezone preferences in your user account.

Time Position Orientation Groundspeed Altitude Reporting Facility
EDT Latitude Longitude Course Direction KTS MPH feet Rate Location/Type
Sun 01:16:32 PM 25.7730 -80.2317 319° Northwest  Level FlightAware Approximate
Sun 01:17:23 PM 25.8006 -80.2583 179° South 173 199 1,100  Level Miami Center
Sun 01:22:25 PM 25.5250 -80.2506 214° Southwest 295 339 11,900 2,287 Climbing Miami Center
Sun 01:23:25 PM 25.4506 -80.3061 212° Southwest 307 353 14,900 2,400 Climbing Miami Center
Sun 01:24:25 PM 25.3719 -80.3614 210° Southwest 326 375 16,700 1,950 Climbing Miami Center
Sun 01:25:25 PM 25.2831 -80.4186 208° Southwest 351 404 18,800 2,100 Climbing Miami Center
Sun 01:26:25 PM 25.1856 -80.4753 211° Southwest 380 437 20,900 2,050 Climbing Miami Center
Sun 01:27:25 PM 25.0942 -80.5369 210° Southwest 392 451 22,900 1,950 Climbing Miami Center
Sun 01:28:25 PM 24.9964 -80.5981 211° Southwest 397 457 24,800 1,850 Climbing Miami Center
Sun 01:29:25 PM 24.8989 -80.6617 208° Southwest 408 470 26,600 1,650 Climbing Miami Center
Sun 01:30:25 PM 24.7969 -80.7225 211° Southwest 413 475 28,100 1,500 Climbing Miami Center
Sun 01:31:25 PM 24.6969 -80.7881 209° Southwest 413 475 29,600 1,300 Climbing Miami Center
Sun 01:32:25 PM 24.5931 -80.8508 210° Southwest 419 482 30,700 1,300 Climbing Miami Center
Sun 01:33:25 PM 24.4911 -80.9161 210° Southwest 424 488 32,200 1,400 Climbing Miami Center
Sun 01:34:25 PM 24.3911 -80.9789 209° Southwest 424 488 33,500 1,150 Climbing Miami Center
Sun 01:35:25 PM 24.2892 -81.0417 210° Southwest 424 488 34,500 750 Climbing Miami Center
Sun 01:36:25 PM 24.1869 -81.1067 208° Southwest 424 488 35,000 250 Climbing Miami Center
Sun 01:37:25 PM 24.0831 -81.1667 214° Southwest 424 488 35,000  Level Miami Center
Sun 01:44:32 PM 23.4081 -81.6624 217° Southwest  Level FlightAware Approximate
Sun 01:45:32 PM 23.3159 -81.7368 217° Southwest  Level FlightAware Approximate
Sun 01:46:32 PM 23.2237 -81.8111 216° Southwest  Level FlightAware Approximate
Sun 01:47:32 PM 23.1314 -81.8853 216° Southwest  Level FlightAware Approximate
Sun 01:48:32 PM 23.0391 -81.9594 216° Southwest  Level FlightAware Approximate
Sun 01:49:32 PM 22.9468 -82.0334 216° Southwest  Level FlightAware Approximate
Sun 01:50:32 PM 22.8544 -82.1073 216° Southwest  Level FlightAware Approximate
Sun 01:51:32 PM 22.7619 -82.1811 216° Southwest  Level FlightAware Approximate
Sun 01:52:32 PM 22.6695 -82.2548 216° Southwest  Level FlightAware Approximate
Sun 01:53:32 PM 22.5770 -82.3283 216° Southwest  Level FlightAware Approximate
Sun 01:54:32 PM 22.4845 -82.4018 216° Southwest  Level FlightAware Approximate
Sun 01:55:32 PM 22.3919 -82.4752 216° Southwest  Level FlightAware Approximate
Sun 01:56:32 PM 22.2994 -82.5485 216° Southwest  Level FlightAware Approximate
Sun 01:57:32 PM 22.2067 -82.6217 216° Southwest  Level FlightAware Approximate
Sun 01:58:32 PM 22.1141 -82.6948 216° Southwest  Level FlightAware Approximate
Sun 01:59:32 PM 22.0214 -82.7678 216° Southwest  Level FlightAware Approximate
Sun 02:00:32 PM 21.9287 -82.8407 216° Southwest  Level FlightAware Approximate
Sun 02:01:32 PM 21.8359 -82.9136 216° Southwest  Level FlightAware Approximate
Sun 02:02:32 PM 21.7432 -82.9863 216° Southwest  Level FlightAware Approximate
Sun 02:03:32 PM 21.6503 -83.0589 216° Southwest  Level FlightAware Approximate
Sun 02:04:32 PM 21.5575 -83.1314 216° Southwest  Level FlightAware Approximate
Sun 02:05:32 PM 21.4646 -83.2039 216° Southwest  Level FlightAware Approximate
Sun 02:06:32 PM 21.3717 -83.2762 216° Southwest  Level FlightAware Approximate
Sun 02:07:32 PM 21.2788 -83.3485 216° Southwest  Level FlightAware Approximate
Sun 02:08:32 PM 21.1858 -83.4206 216° Southwest  Level FlightAware Approximate
Sun 02:09:32 PM 21.0928 -83.4927 216° Southwest  Level FlightAware Approximate
Sun 02:10:32 PM 20.9998 -83.5647 216° Southwest  Level FlightAware Approximate
Sun 02:11:32 PM 20.9067 -83.6366 216° Southwest  Level FlightAware Approximate
Sun 02:12:32 PM 20.8136 -83.7084 216° Southwest  Level FlightAware Approximate
Sun 02:13:32 PM 20.7205 -83.7801 216° Southwest  Level FlightAware Approximate
Sun 02:14:32 PM 20.6274 -83.8518 216° Southwest  Level FlightAware Approximate
Sun 02:15:32 PM 20.5342 -83.9233 196° South  Level FlightAware Approximate
Sun 02:16:32 PM 20.4252 -83.9567 216° Southwest  Level FlightAware Approximate
Sun 02:17:32 PM 20.3326 -84.0290 216° Southwest  Level FlightAware Approximate
Sun 02:18:32 PM 20.2400 -84.1013 216° Southwest  Level FlightAware Approximate
Sun 02:19:32 PM 20.1474 -84.1734 216° Southwest  Level FlightAware Approximate
Sun 02:20:32 PM 20.0547 -84.2455 216° Southwest  Level FlightAware Approximate
Sun 02:21:32 PM 19.9620 -84.3175 218° Southwest  Level FlightAware Approximate
Sun 02:22:32 PM 19.8713 -84.3922 218° Southwest  Level FlightAware Approximate
Sun 02:23:32 PM 19.7806 -84.4669 218° Southwest  Level FlightAware Approximate
Sun 02:24:32 PM 19.6898 -84.5414 218° Southwest  Level FlightAware Approximate
Sun 02:25:32 PM 19.5989 -84.6159 218° Southwest  Level FlightAware Approximate
Sun 02:26:32 PM 19.5081 -84.6903 218° Southwest  Level FlightAware Approximate
Sun 02:27:32 PM 19.4172 -84.7646 218° Southwest  Level FlightAware Approximate
Sun 02:28:32 PM 19.3263 -84.8388 218° Southwest  Level FlightAware Approximate
Sun 02:29:32 PM 19.2354 -84.9129 218° Southwest  Level FlightAware Approximate
Sun 02:30:32 PM 19.1444 -84.9870 218° Southwest  Level FlightAware Approximate
Sun 02:31:32 PM 19.0534 -85.0610 218° Southwest  Level FlightAware Approximate
Sun 02:32:32 PM 18.9624 -85.1349 217° Southwest  Level FlightAware Approximate
Sun 02:33:32 PM 18.8713 -85.2087 217° Southwest  Level FlightAware Approximate
Sun 02:34:32 PM 18.7802 -85.2824 217° Southwest  Level FlightAware Approximate
Sun 02:35:32 PM 18.6891 -85.3560 217° Southwest  Level FlightAware Approximate
Sun 02:36:32 PM 18.5979 -85.4296 217° Southwest  Level FlightAware Approximate
Sun 02:37:32 PM 18.5068 -85.5031 217° Southwest  Level FlightAware Approximate
Sun 02:38:32 PM 18.4156 -85.5765 185° South  Level FlightAware Approximate
Sun 02:39:32 PM 18.3073 -85.5863 224° Southwest  Level FlightAware Approximate
Sun 02:40:32 PM 18.2249 -85.6704 224° Southwest  Level FlightAware Approximate
Sun 02:41:32 PM 18.1425 -85.7544 224° Southwest  Level FlightAware Approximate
Sun 02:42:32 PM 18.0600 -85.8384 224° Southwest  Level FlightAware Approximate
Sun 02:43:32 PM 17.9775 -85.9222 224° Southwest  Level FlightAware Approximate
Sun 02:44:32 PM 17.8950 -86.0060 224° Southwest  Level FlightAware Approximate
Sun 02:45:32 PM 17.8124 -86.0898 224° Southwest  Level FlightAware Approximate
Sun 02:46:32 PM 17.7298 -86.1734 224° Southwest  Level FlightAware Approximate
Sun 02:47:32 PM 17.6472 -86.2570 224° Southwest  Level FlightAware Approximate
Sun 02:48:32 PM 17.5645 -86.3404 224° Southwest  Level FlightAware Approximate
Sun 02:49:32 PM 17.4820 -86.4241 224° Southwest  Level FlightAware Approximate
Sun 02:50:32 PM 17.3996 -86.5078 234° Southwest  Level FlightAware Approximate
Sun 02:51:32 PM 17.3328 -86.6055 234° Southwest  Level FlightAware Approximate
Sun 02:52:32 PM 17.2659 -86.7032 234° Southwest  Level FlightAware Approximate
Sun 02:53:32 PM 17.1990 -86.8008 234° Southwest  Level FlightAware Approximate
Sun 02:54:32 PM 17.1320 -86.8984 234° Southwest  Level FlightAware Approximate
Sun 02:55:32 PM 17.0651 -86.9958 234° Southwest  Level FlightAware Approximate
Sun 02:56:32 PM 16.9980 -87.0932 234° Southwest  Level FlightAware Approximate
Sun 02:57:32 PM 16.9309 -87.1906 234° Southwest  Level FlightAware Approximate
Sun 02:58:32 PM 16.8638 -87.2878 234° Southwest  Level FlightAware Approximate
Sun 02:59:32 PM 16.7966 -87.3850 234° Southwest  Level FlightAware Approximate
Sun 03:00:32 PM 16.7294 -87.4821 234° Southwest  Level FlightAware Approximate
Sun 03:01:32 PM 16.6621 -87.5792 234° Southwest  Level FlightAware Approximate
Sun 03:02:32 PM 16.5948 -87.6762 234° Southwest  Level FlightAware Approximate
Sun 03:03:32 PM 16.5274 -87.7731 234° Southwest  Level FlightAware Approximate
Sun 03:04:32 PM 16.4600 -87.8699 234° Southwest  Level FlightAware Approximate
Sun 03:05:32 PM 16.3926 -87.9667 234° Southwest  Level FlightAware Approximate
Sun 03:06:32 PM 16.3251 -88.0634 234° Southwest  Level FlightAware Approximate
Sun 03:07:32 PM 16.2575 -88.1601 234° Southwest  Level FlightAware Approximate
Sun 03:08:32 PM 16.1899 -88.2567 234° Southwest  Level FlightAware Approximate
Sun 03:09:32 PM 16.1223 -88.3532 234° Southwest  Level FlightAware Approximate
Sun 03:10:32 PM 16.0546 -88.4496 234° Southwest  Level FlightAware Approximate
Sun 03:11:32 PM 15.9869 -88.5460 234° Southwest  Level FlightAware Approximate
Sun 03:12:32 PM 15.9192 -88.6423 234° Southwest  Level FlightAware Approximate
Sun 03:13:32 PM 15.8514 -88.7386 234° Southwest  Level FlightAware Approximate
Sun 03:14:32 PM 15.7835 -88.8348 234° Southwest  Level FlightAware Approximate
Sun 03:15:32 PM 15.7156 -88.9309 234° Southwest  Level FlightAware Approximate
Sun 03:16:32 PM 15.6477 -89.0270 234° Southwest  Level FlightAware Approximate
Sun 03:17:32 PM 15.5797 -89.1230 234° Southwest  Level FlightAware Approximate
Sun 03:18:32 PM 15.5117 -89.2189 234° Southwest  Level FlightAware Approximate
Sun 03:19:32 PM 15.4437 -89.3148 234° Southwest  Level FlightAware Approximate
Sun 03:20:32 PM 15.3756 -89.4106 234° Southwest  Level FlightAware Approximate
Sun 03:21:32 PM 15.3074 -89.5063 234° Southwest  Level FlightAware Approximate
Sun 03:22:32 PM 15.2393 -89.6020 234° Southwest  Level FlightAware Approximate
Sun 03:23:32 PM 15.1710 -89.6976 234° Southwest  Level FlightAware Approximate
Sun 03:24:32 PM 15.1028 -89.7932 233° Southwest  Level FlightAware Approximate
Sun 03:25:32 PM 15.0345 -89.8887 233° Southwest  Level FlightAware Approximate
Sun 03:26:32 PM 14.9662 -89.9841 233° Southwest  Level FlightAware Approximate
Sun 03:27:32 PM 14.8978 -90.0795 233° Southwest  Level FlightAware Approximate
Sun 03:28:32 PM 14.8294 -90.1748 233° Southwest  Level FlightAware Approximate
Sun 03:29:32 PM 14.7609 -90.2701 195° South  Level FlightAware Approximate
Sun 03:30:32 PM 14.6500 -90.3001 255° West  Level FlightAware Approximate
Sun 03:31:32 PM 14.6213 -90.4134 245° Southwest  Level FlightAware Approximate
Sun 03:32:32 PM 14.5756 -90.5167 306° West  Level FlightAware Approximate
Sun 03:33:32 PM 14.6437 -90.6121 130° Southeast  Level Estimated
Sun 03:34:32 PM 14.5667 -90.5167 130° Southeast  Level FlightAware Approximate

Login

Don't have an account? Register now (free) for customized features, flight alerts, and more!